sensor_id;sensor_type;location;lat;lon;timestamp;pressure;altitude;pressure_sealevel;temperature;humidity
80124;BME280;69433;48.642;9.142;2024-01-25T00:00:51;98146.28;;;22.29;34.26
80124;BME280;69433;48.642;9.142;2024-01-25T00:03:25;98143.59;;;22.29;34.21
80124;BME280;69433;48.642;9.142;2024-01-25T00:05:52;98150.09;;;22.28;34.20
80124;BME280;69433;48.642;9.142;2024-01-25T00:08:18;98147.41;;;22.28;34.33
80124;BME280;69433;48.642;9.142;2024-01-25T00:10:44;98135.16;;;22.27;34.21
80124;BME280;69433;48.642;9.142;2024-01-25T00:13:10;98136.28;;;22.26;34.19
80124;BME280;69433;48.642;9.142;2024-01-25T00:15:42;98138.56;;;22.24;34.31
80124;BME280;69433;48.642;9.142;2024-01-25T00:18:08;98137.78;;;22.23;34.34
80124;BME280;69433;48.642;9.142;2024-01-25T00:20:33;98132.44;;;22.23;34.10
80124;BME280;69433;48.642;9.142;2024-01-25T00:22:58;98140.84;;;22.21;34.24
80124;BME280;69433;48.642;9.142;2024-01-25T00:25:23;98123.22;;;22.20;34.20
80124;BME280;69433;48.642;9.142;2024-01-25T00:27:49;98112.91;;;22.23;34.36
80124;BME280;69433;48.642;9.142;2024-01-25T00:30:14;98122.13;;;22.25;34.23
80124;BME280;69433;48.642;9.142;2024-01-25T00:32:39;98133.22;;;22.24;34.36
80124;BME280;69433;48.642;9.142;2024-01-25T00:35:05;98125.91;;;22.20;34.21
80124;BME280;69433;48.642;9.142;2024-01-25T00:37:31;98128.22;;;22.22;34.17
80124;BME280;69433;48.642;9.142;2024-01-25T00:40:03;98125.91;;;22.20;34.27
80124;BME280;69433;48.642;9.142;2024-01-25T00:42:30;98125.91;;;22.20;34.22
80124;BME280;69433;48.642;9.142;2024-01-25T00:44:57;98126.69;;;22.21;34.30
80124;BME280;69433;48.642;9.142;2024-01-25T00:47:23;98118.28;;;22.23;34.12
80124;BME280;69433;48.642;9.142;2024-01-25T00:49:55;98116.38;;;22.19;34.18
80124;BME280;69433;48.642;9.142;2024-01-25T00:52:22;98121.31;;;22.21;34.20
80124;BME280;69433;48.642;9.142;2024-01-25T00:54:47;98123.63;;;22.23;34.29
80124;BME280;69433;48.642;9.142;2024-01-25T00:57:13;98111.00;;;22.19;34.13
80124;BME280;69433;48.642;9.142;2024-01-25T00:59:41;98114.44;;;22.20;34.13
80124;BME280;69433;48.642;9.142;2024-01-25T01:02:10;98119.03;;;22.19;34.14
80124;BME280;69433;48.642;9.142;2024-01-25T01:04:36;98125.91;;;22.20;34.07
80124;BME280;69433;48.642;9.142;2024-01-25T01:07:03;98124.41;;;22.19;34.02
80124;BME280;69433;48.642;9.142;2024-01-25T01:09:30;98126.31;;;22.19;33.94
80124;BME280;69433;48.642;9.142;2024-01-25T01:11:55;98122.84;;;22.18;34.16
80124;BME280;69433;48.642;9.142;2024-01-25T01:14:23;98119.78;;;22.16;34.15
80124;BME280;69433;48.642;9.142;2024-01-25T01:16:51;98118.63;;;22.17;34.24
80124;BME280;69433;48.642;9.142;2024-01-25T01:19:18;98123.59;;;22.15;34.34
80124;BME280;69433;48.642;9.142;2024-01-25T01:21:51;98115.97;;;22.17;34.15
80124;BME280;69433;48.642;9.142;2024-01-25T01:24:24;98121.31;;;22.17;34.00
80124;BME280;69433;48.642;9.142;2024-01-25T01:26:49;98114.81;;;22.18;33.93
80124;BME280;69433;48.642;9.142;2024-01-25T01:29:16;98114.41;;;22.16;34.09
80124;BME280;69433;48.642;9.142;2024-01-25T01:31:42;98112.88;;;22.15;34.10
80124;BME280;69433;48.642;9.142;2024-01-25T01:34:08;98110.19;;;22.15;34.01
80124;BME280;69433;48.642;9.142;2024-01-25T01:36:33;98106.38;;;22.16;34.08
80124;BME280;69433;48.642;9.142;2024-01-25T01:38:58;98106.00;;;22.18;34.04
80124;BME280;69433;48.642;9.142;2024-01-25T01:41:25;98107.53;;;22.15;34.03
80124;BME280;69433;48.642;9.142;2024-01-25T01:43:55;98101.41;;;22.15;33.95
80124;BME280;69433;48.642;9.142;2024-01-25T01:46:37;98104.84;;;22.15;33.99
80124;BME280;69433;48.642;9.142;2024-01-25T01:49:06;98093.72;;;22.13;34.09
80124;BME280;69433;48.642;9.142;2024-01-25T01:51:32;98099.84;;;22.14;34.24
80124;BME280;69433;48.642;9.142;2024-01-25T01:54:00;98104.06;;;22.15;34.08
80124;BME280;69433;48.642;9.142;2024-01-25T01:56:27;98105.22;;;22.10;34.00
80124;BME280;69433;48.642;9.142;2024-01-25T01:59:05;98102.91;;;22.12;34.04
80124;BME280;69433;48.642;9.142;2024-01-25T02:01:34;98099.09;;;22.13;34.09
80124;BME280;69433;48.642;9.142;2024-01-25T02:04:04;98093.72;;;22.10;34.05
80124;BME280;69433;48.642;9.142;2024-01-25T02:06:30;98092.97;;;22.09;34.12
80124;BME280;69433;48.642;9.142;2024-01-25T02:08:57;98096.78;;;22.08;34.10
80124;BME280;69433;48.642;9.142;2024-01-25T02:11:26;98102.13;;;22.08;34.04
80124;BME280;69433;48.642;9.142;2024-01-25T02:13:52;98107.47;;;22.08;33.99
80124;BME280;69433;48.642;9.142;2024-01-25T02:16:18;98107.47;;;22.08;34.08
80124;BME280;69433;48.642;9.142;2024-01-25T02:18:45;98109.75;;;22.06;34.15
80124;BME280;69433;48.642;9.142;2024-01-25T02:21:11;98109.75;;;22.06;34.13
80124;BME280;69433;48.642;9.142;2024-01-25T02:23:36;98107.09;;;22.06;34.16
80124;BME280;69433;48.642;9.142;2024-01-25T02:26:03;98108.22;;;22.05;34.08
80124;BME280;69433;48.642;9.142;2024-01-25T02:28:28;98112.03;;;22.04;34.51
80124;BME280;69433;48.642;9.142;2024-01-25T02:30:54;98098.66;;;22.04;34.54
80124;BME280;69433;48.642;9.142;2024-01-25T02:33:21;98107.03;;;22.03;34.60
80124;BME280;69433;48.642;9.142;2024-01-25T02:35:46;98097.47;;;22.02;34.55
80124;BME280;69433;48.642;9.142;2024-01-25T02:38:11;98092.50;;;22.00;34.56
80124;BME280;69433;48.642;9.142;2024-01-25T02:40:37;98100.91;;;22.02;34.64
80124;BME280;69433;48.642;9.142;2024-01-25T02:43:07;98089.84;;;22.00;34.52
80124;BME280;69433;48.642;9.142;2024-01-25T02:45:32;98095.19;;;22.00;34.45
80124;BME280;69433;48.642;9.142;2024-01-25T02:47:58;98086.75;;;21.98;34.39
80124;BME280;69433;48.642;9.142;2024-01-25T02:50:25;98092.50;;;22.00;34.35
80124;BME280;69433;48.642;9.142;2024-01-25T02:52:51;98088.66;;;22.01;34.45
80124;BME280;69433;48.642;9.142;2024-01-25T02:55:18;98092.88;;;22.02;34.41
80124;BME280;69433;48.642;9.142;2024-01-25T02:57:44;98088.66;;;22.01;34.40
80124;BME280;69433;48.642;9.142;2024-01-25T03:00:10;98092.13;;;22.02;34.36
80124;BME280;69433;48.642;9.142;2024-01-25T03:02:35;98097.88;;;22.00;34.18
80124;BME280;69433;48.642;9.142;2024-01-25T03:05:01;98097.47;;;22.02;34.41
80124;BME280;69433;48.642;9.142;2024-01-25T03:07:34;98094.03;;;22.01;34.38
80124;BME280;69433;48.642;9.142;2024-01-25T03:09:59;98103.22;;;22.00;34.44
80124;BME280;69433;48.642;9.142;2024-01-25T03:12:25;98106.59;;;21.97;34.39
80124;BME280;69433;48.642;9.142;2024-01-25T03:14:56;98111.19;;;21.97;34.48
80124;BME280;69433;48.642;9.142;2024-01-25T03:17:24;98109.28;;;21.97;34.27
80124;BME280;69433;48.642;9.142;2024-01-25T03:19:50;98099.72;;;21.96;34.42
80124;BME280;69433;48.642;9.142;2024-01-25T03:22:23;98101.25;;;21.97;34.38
80124;BME280;69433;48.642;9.142;2024-01-25T03:24:53;98095.13;;;21.97;34.39
80124;BME280;69433;48.642;9.142;2024-01-25T03:27:19;98108.88;;;21.95;34.37
80124;BME280;69433;48.642;9.142;2024-01-25T03:29:45;98113.84;;;21.93;34.43
80124;BME280;69433;48.642;9.142;2024-01-25T03:32:10;98114.63;;;21.97;34.28
80124;BME280;69433;48.642;9.142;2024-01-25T03:34:36;98113.47;;;21.95;34.44
80124;BME280;69433;48.642;9.142;2024-01-25T03:37:09;98125.72;;;21.96;34.44
80124;BME280;69433;48.642;9.142;2024-01-25T03:39:34;98127.22;;;21.93;34.26
80124;BME280;69433;48.642;9.142;2024-01-25T03:42:01;98134.88;;;21.95;34.32
80124;BME280;69433;48.642;9.142;2024-01-25T03:44:31;98141.38;;;21.94;34.27
80124;BME280;69433;48.642;9.142;2024-01-25T03:47:11;98140.25;;;21.95;34.48
80124;BME280;69433;48.642;9.142;2024-01-25T03:49:36;98140.22;;;21.91;34.22
80124;BME280;69433;48.642;9.142;2024-01-25T03:52:04;98145.59;;;21.91;34.21
80124;BME280;69433;48.642;9.142;2024-01-25T03:54:37;98144.81;;;21.94;34.25
80124;BME280;69433;48.642;9.142;2024-01-25T03:57:02;98151.31;;;21.93;34.35
80124;BME280;69433;48.642;9.142;2024-01-25T03:59:30;98160.09;;;21.90;34.32
80124;BME280;69433;48.642;9.142;2024-01-25T04:02:00;98160.09;;;21.90;34.32
80124;BME280;69433;48.642;9.142;2024-01-25T04:04:25;98176.94;;;21.91;34.25
80124;BME280;69433;48.642;9.142;2024-01-25T04:06:51;98172.72;;;21.93;34.36
80124;BME280;69433;48.642;9.142;2024-01-25T04:09:17;98170.88;;;21.97;34.29
80124;BME280;69433;48.642;9.142;2024-01-25T04:11:45;98168.63;;;22.03;34.21
80124;BME280;69433;48.642;9.142;2024-01-25T04:14:12;98173.28;;;22.09;34.13
80124;BME280;69433;48.642;9.142;2024-01-25T04:16:41;98160.22;;;22.04;34.24
80124;BME280;69433;48.642;9.142;2024-01-25T04:19:09;98158.69;;;22.03;34.31
80124;BME280;69433;48.642;9.142;2024-01-25T04:21:37;98160.63;;;22.06;34.30
80124;BME280;69433;48.642;9.142;2024-01-25T04:24:04;98167.94;;;22.13;34.05
80124;BME280;69433;48.642;9.142;2024-01-25T04:26:35;98170.66;;;22.16;33.97
80124;BME280;69433;48.642;9.142;2024-01-25T04:29:03;98164.19;;;22.21;34.08
80124;BME280;69433;48.642;9.142;2024-01-25T04:31:30;98173.78;;;22.26;33.97
80124;BME280;69433;48.642;9.142;2024-01-25T04:33:58;98170.38;;;22.29;33.78
80124;BME280;69433;48.642;9.142;2024-01-25T04:36:24;98183.44;;;22.37;33.72
80124;BME280;69433;48.642;9.142;2024-01-25T04:38:49;98185.06;;;22.49;33.69
80124;BME280;69433;48.642;9.142;2024-01-25T04:41:15;98192.00;;;22.57;33.59
80124;BME280;69433;48.642;9.142;2024-01-25T04:43:40;98183.59;;;22.62;33.49
80124;BME280;69433;48.642;9.142;2024-01-25T04:46:06;98182.13;;;22.68;33.58
80124;BME280;69433;48.642;9.142;2024-01-25T04:48:32;98184.44;;;22.73;33.33
80124;BME280;69433;48.642;9.142;2024-01-25T04:50:57;98186.75;;;22.78;33.44
80124;BME280;69433;48.642;9.142;2024-01-25T04:53:24;98186.44;;;22.83;33.42
80124;BME280;69433;48.642;9.142;2024-01-25T04:55:57;98187.22;;;22.87;33.08
80124;BME280;69433;48.642;9.142;2024-01-25T04:58:24;98189.91;;;22.91;33.24
80124;BME280;69433;48.642;9.142;2024-01-25T05:00:51;98183.03;;;22.93;33.30
80124;BME280;69433;48.642;9.142;2024-01-25T05:03:18;98183.78;;;22.98;33.25
80124;BME280;69433;48.642;9.142;2024-01-25T05:05:44;98201.81;;;23.01;33.14
80124;BME280;69433;48.642;9.142;2024-01-25T05:08:09;98209.13;;;23.04;33.17
80124;BME280;69433;48.642;9.142;2024-01-25T05:10:41;98208.75;;;23.05;32.92
80124;BME280;69433;48.642;9.142;2024-01-25T05:13:09;98213.75;;;23.07;33.09
80124;BME280;69433;48.642;9.142;2024-01-25T05:15:35;98214.88;;;23.06;33.07
80124;BME280;69433;48.642;9.142;2024-01-25T05:18:02;98214.50;;;23.04;32.94
80124;BME280;69433;48.642;9.142;2024-01-25T05:20:28;98217.53;;;23.02;32.91
80124;BME280;69433;48.642;9.142;2024-01-25T05:22:59;98214.06;;;22.94;33.00
80124;BME280;69433;48.642;9.142;2024-01-25T05:25:24;98219.00;;;22.85;33.58
80124;BME280;69433;48.642;9.142;2024-01-25T05:27:55;98222.03;;;22.80;33.69
80124;BME280;69433;48.642;9.142;2024-01-25T05:30:21;98235.78;;;22.75;33.79
80124;BME280;69433;48.642;9.142;2024-01-25T05:32:54;98230.38;;;22.72;34.15
80124;BME280;69433;48.642;9.142;2024-01-25T05:35:22;98230.75;;;22.70;34.06
80124;BME280;69433;48.642;9.142;2024-01-25T05:37:48;98235.72;;;22.68;34.33
80124;BME280;69433;48.642;9.142;2024-01-25T05:40:14;98235.72;;;22.68;34.03
80124;BME280;69433;48.642;9.142;2024-01-25T05:42:49;98239.53;;;22.67;34.28
80124;BME280;69433;48.642;9.142;2024-01-25T05:45:20;98234.19;;;22.67;34.20
80124;BME280;69433;48.642;9.142;2024-01-25T05:47:47;98229.59;;;22.68;34.23
80124;BME280;69433;48.642;9.142;2024-01-25T05:50:12;98233.03;;;22.68;34.35
80124;BME280;69433;48.642;9.142;2024-01-25T05:52:39;98234.19;;;22.67;34.31
80124;BME280;69433;48.642;9.142;2024-01-25T05:55:05;98239.91;;;22.69;34.26
80124;BME280;69433;48.642;9.142;2024-01-25T05:57:36;98233.03;;;22.68;34.38
80124;BME280;69433;48.642;9.142;2024-01-25T06:00:05;98231.88;;;22.69;34.27
80124;BME280;69433;48.642;9.142;2024-01-25T06:02:33;98222.69;;;22.70;34.19
80124;BME280;69433;48.642;9.142;2024-01-25T06:05:05;98224.25;;;22.71;34.38
80124;BME280;69433;48.642;9.142;2024-01-25T06:07:31;98217.34;;;22.70;34.16
80124;BME280;69433;48.642;9.142;2024-01-25T06:09:56;98218.09;;;22.67;34.34
80124;BME280;69433;48.642;9.142;2024-01-25T06:12:21;98214.63;;;22.63;34.44
80124;BME280;69433;48.642;9.142;2024-01-25T06:14:46;98217.25;;;22.59;34.47
80124;BME280;69433;48.642;9.142;2024-01-25T06:17:21;98225.31;;;22.56;34.44
80124;BME280;69433;48.642;9.142;2024-01-25T06:19:46;98226.03;;;22.53;34.67
80124;BME280;69433;48.642;9.142;2024-01-25T06:22:12;98237.13;;;22.48;34.76
80124;BME280;69433;48.642;9.142;2024-01-25T06:24:42;98236.31;;;22.44;34.59
80124;BME280;69433;48.642;9.142;2024-01-25T06:27:09;98238.19;;;22.40;34.69
80124;BME280;69433;48.642;9.142;2024-01-25T06:29:47;98229.38;;;22.36;35.01
80124;BME280;69433;48.642;9.142;2024-01-25T06:32:24;98227.00;;;22.31;34.96
80124;BME280;69433;48.642;9.142;2024-01-25T06:34:54;98236.94;;;22.27;35.19
80124;BME280;69433;48.642;9.142;2024-01-25T06:37:22;98241.50;;;22.23;34.99
80124;BME280;69433;48.642;9.142;2024-01-25T06:39:47;98253.75;;;22.20;35.03
80124;BME280;69433;48.642;9.142;2024-01-25T06:42:12;98248.34;;;22.16;35.32
80124;BME280;69433;48.642;9.142;2024-01-25T06:44:38;98255.19;;;22.10;35.12
80124;BME280;69433;48.642;9.142;2024-01-25T06:47:03;98252.41;;;22.03;35.44
80124;BME280;69433;48.642;9.142;2024-01-25T06:49:29;98256.22;;;21.99;35.58
80124;BME280;69433;48.642;9.142;2024-01-25T06:51:54;98259.22;;;21.97;35.57
80124;BME280;69433;48.642;9.142;2024-01-25T06:54:24;98261.09;;;21.93;35.44
80124;BME280;69433;48.642;9.142;2024-01-25T06:56:49;98265.28;;;21.91;35.72
80124;BME280;69433;48.642;9.142;2024-01-25T06:59:18;98267.16;;;21.87;35.69
80124;BME280;69433;48.642;9.142;2024-01-25T07:01:45;98270.59;;;21.87;35.71
80124;BME280;69433;48.642;9.142;2024-01-25T07:04:13;98266.38;;;21.86;35.82
80124;BME280;69433;48.642;9.142;2024-01-25T07:06:39;98271.31;;;21.84;35.68
80124;BME280;69433;48.642;9.142;2024-01-25T07:09:13;98254.84;;;21.82;35.79
80124;BME280;69433;48.642;9.142;2024-01-25T07:11:38;98247.22;;;21.80;35.70
80124;BME280;69433;48.642;9.142;2024-01-25T07:14:10;98261.69;;;21.76;35.52
80124;BME280;69433;48.642;9.142;2024-01-25T07:16:42;98266.69;;;21.77;35.65
80124;BME280;69433;48.642;9.142;2024-01-25T07:19:08;98267.50;;;21.81;35.57
80124;BME280;69433;48.642;9.142;2024-01-25T07:21:33;98266.34;;;21.82;35.58
80124;BME280;69433;48.642;9.142;2024-01-25T07:24:02;98267.09;;;21.83;35.52
80124;BME280;69433;48.642;9.142;2024-01-25T07:26:30;98271.75;;;21.86;35.36
80124;BME280;69433;48.642;9.142;2024-01-25T07:28:55;98265.25;;;21.87;35.54
80124;BME280;69433;48.642;9.142;2024-01-25T07:31:26;98267.94;;;21.87;35.57
80124;BME280;69433;48.642;9.142;2024-01-25T07:34:01;98266.38;;;21.86;35.37
80124;BME280;69433;48.642;9.142;2024-01-25T07:36:26;98261.84;;;21.90;35.43
80124;BME280;69433;48.642;9.142;2024-01-25T07:38:52;98267.97;;;21.91;35.46
80124;BME280;69433;48.642;9.142;2024-01-25T07:41:22;98269.47;;;21.92;35.45
80124;BME280;69433;48.642;9.142;2024-01-25T07:43:55;98271.44;;;21.95;35.33
80124;BME280;69433;48.642;9.142;2024-01-25T07:46:21;98273.41;;;21.98;35.42
80124;BME280;69433;48.642;9.142;2024-01-25T07:48:51;98275.72;;;21.99;35.37
80124;BME280;69433;48.642;9.142;2024-01-25T07:51:18;98284.16;;;22.01;35.33
80124;BME280;69433;48.642;9.142;2024-01-25T07:53:43;98296.03;;;22.04;35.30
80124;BME280;69433;48.642;9.142;2024-01-25T07:56:09;98292.59;;;22.03;35.31
80124;BME280;69433;48.642;9.142;2024-01-25T07:58:42;98282.69;;;22.07;35.31
80124;BME280;69433;48.642;9.142;2024-01-25T08:01:08;98274.25;;;22.05;35.32
80124;BME280;69433;48.642;9.142;2024-01-25T08:03:41;98274.28;;;22.09;35.18
80124;BME280;69433;48.642;9.142;2024-01-25T08:06:08;98274.31;;;22.12;35.23
80124;BME280;69433;48.642;9.142;2024-01-25T08:08:35;98278.53;;;22.13;35.12
80124;BME280;69433;48.642;9.142;2024-01-25T08:11:01;98268.28;;;22.19;35.16
80124;BME280;69433;48.642;9.142;2024-01-25T08:13:37;98272.44;;;22.16;35.22
80124;BME280;69433;48.642;9.142;2024-01-25T08:16:12;98277.50;;;22.25;35.03
80124;BME280;69433;48.642;9.142;2024-01-25T08:18:39;98269.81;;;22.24;34.99
80124;BME280;69433;48.642;9.142;2024-01-25T08:21:07;98276.00;;;22.28;35.05
80124;BME280;69433;48.642;9.142;2024-01-25T08:23:33;98277.16;;;22.30;35.02
80124;BME280;69433;48.642;9.142;2024-01-25T08:26:05;98268.78;;;22.35;34.98
80124;BME280;69433;48.642;9.142;2024-01-25T08:28:38;98265.38;;;22.38;34.75
80124;BME280;69433;48.642;9.142;2024-01-25T08:31:12;98261.56;;;22.39;34.66
80124;BME280;69433;48.642;9.142;2024-01-25T08:33:46;98266.88;;;22.36;34.81
80124;BME280;69433;48.642;9.142;2024-01-25T08:36:18;98264.94;;;22.33;34.87
80124;BME280;69433;48.642;9.142;2024-01-25T08:38:58;98269.88;;;22.31;34.96
80124;BME280;69433;48.642;9.142;2024-01-25T08:41:27;98264.91;;;22.29;34.98
80124;BME280;69433;48.642;9.142;2024-01-25T08:44:04;98273.72;;;22.30;34.89
80124;BME280;69433;48.642;9.142;2024-01-25T08:46:40;98284.50;;;22.37;34.94
80124;BME280;69433;48.642;9.142;2024-01-25T08:49:07;98288.72;;;22.38;34.84
80124;BME280;69433;48.642;9.142;2024-01-25T08:51:34;98292.94;;;22.39;34.98
80124;BME280;69433;48.642;9.142;2024-01-25T08:54:06;98299.88;;;22.47;34.96
80124;BME280;69433;48.642;9.142;2024-01-25T08:56:53;98308.72;;;22.51;34.74
80124;BME280;69433;48.642;9.142;2024-01-25T08:59:18;98306.44;;;22.53;34.65
80124;BME280;69433;48.642;9.142;2024-01-25T09:01:43;98304.94;;;22.55;34.79
80124;BME280;69433;48.642;9.142;2024-01-25T09:04:09;98303.03;;;22.56;34.57
80124;BME280;69433;48.642;9.142;2024-01-25T09:06:44;98307.56;;;22.52;34.66
80124;BME280;69433;48.642;9.142;2024-01-25T09:09:15;98314.47;;;22.53;34.75
80124;BME280;69433;48.642;9.142;2024-01-25T09:11:41;98317.53;;;22.51;34.62
80124;BME280;69433;48.642;9.142;2024-01-25T09:14:12;98311.06;;;22.59;34.77
80124;BME280;69433;48.642;9.142;2024-01-25T09:16:45;98319.31;;;22.77;34.86
80124;BME280;69433;48.642;9.142;2024-01-25T09:19:10;98320.56;;;22.94;34.43
80124;BME280;69433;48.642;9.142;2024-01-25T09:21:38;98328.31;;;23.06;33.97
80124;BME280;69433;48.642;9.142;2024-01-25T09:24:10;98328.34;;;23.17;33.92
80124;BME280;69433;48.642;9.142;2024-01-25T09:26:39;98328.41;;;23.27;34.01
80124;BME280;69433;48.642;9.142;2024-01-25T09:29:04;98330.03;;;23.36;33.36
80124;BME280;69433;48.642;9.142;2024-01-25T09:31:30;98329.69;;;23.44;33.46
80124;BME280;69433;48.642;9.142;2024-01-25T09:33:57;98332.03;;;23.53;33.28
80124;BME280;69433;48.642;9.142;2024-01-25T09:36:31;98327.47;;;23.60;32.97
80124;BME280;69433;48.642;9.142;2024-01-25T09:38:57;98326.31;;;23.65;33.13
80124;BME280;69433;48.642;9.142;2024-01-25T09:41:29;98328.28;;;23.75;32.70
80124;BME280;69433;48.642;9.142;2024-01-25T09:44:17;98332.53;;;23.80;33.10
80124;BME280;69433;48.642;9.142;2024-01-25T09:46:47;98335.97;;;23.84;33.06
80124;BME280;69433;48.642;9.142;2024-01-25T09:49:16;98340.63;;;23.90;32.49
80124;BME280;69433;48.642;9.142;2024-01-25T09:51:44;98342.56;;;23.97;32.73
80124;BME280;69433;48.642;9.142;2024-01-25T09:54:10;98349.06;;;23.89;32.78
80124;BME280;69433;48.642;9.142;2024-01-25T09:57:06;98344.50;;;24.00;32.45
80124;BME280;69433;48.642;9.142;2024-01-25T09:59:38;98355.22;;;23.93;32.48
80124;BME280;69433;48.642;9.142;2024-01-25T10:02:04;98356.72;;;23.87;32.90
80124;BME280;69433;48.642;9.142;2024-01-25T10:04:31;98354.41;;;23.85;32.62
80124;BME280;69433;48.642;9.142;2024-01-25T10:06:58;98365.16;;;23.82;32.71
80124;BME280;69433;48.642;9.142;2024-01-25T10:09:23;98349.00;;;23.75;32.92
80124;BME280;69433;48.642;9.142;2024-01-25T10:12:23;98352.44;;;23.72;33.04
80124;BME280;69433;48.642;9.142;2024-01-25T10:14:51;98347.50;;;23.84;32.72
80124;BME280;69433;48.642;9.142;2024-01-25T10:17:33;98348.25;;;23.85;32.63
80124;BME280;69433;48.642;9.142;2024-01-25T10:20:08;98346.34;;;23.82;33.05
80124;BME280;69433;48.642;9.142;2024-01-25T10:22:36;98346.72;;;23.73;33.24
80124;BME280;69433;48.642;9.142;2024-01-25T10:25:13;98345.19;;;23.79;32.87
80124;BME280;69433;48.642;9.142;2024-01-25T10:27:46;98347.13;;;23.82;33.02
80124;BME280;69433;48.642;9.142;2024-01-25T10:30:17;98332.88;;;23.75;33.23
80124;BME280;69433;48.642;9.142;2024-01-25T10:32:44;98338.63;;;23.70;33.35
80124;BME280;69433;48.642;9.142;2024-01-25T10:35:11;98340.91;;;23.67;33.54
80124;BME280;69433;48.642;9.142;2024-01-25T10:37:41;98336.34;;;23.79;33.24
80124;BME280;69433;48.642;9.142;2024-01-25T10:40:15;98338.69;;;23.87;32.96
80124;BME280;69433;48.642;9.142;2024-01-25T10:43:07;98333.28;;;23.77;33.17
80124;BME280;69433;48.642;9.142;2024-01-25T10:45:35;98335.97;;;23.84;33.29
80124;BME280;69433;48.642;9.142;2024-01-25T10:48:00;98323.31;;;23.81;33.64
80124;BME280;69433;48.642;9.142;2024-01-25T10:50:28;98320.66;;;23.88;33.38
80124;BME280;69433;48.642;9.142;2024-01-25T10:52:57;98321.44;;;23.88;33.11
80124;BME280;69433;48.642;9.142;2024-01-25T10:55:24;98311.09;;;24.01;32.91
80124;BME280;69433;48.642;9.142;2024-01-25T10:57:51;98306.13;;;24.10;32.83
80124;BME280;69433;48.642;9.142;2024-01-25T11:00:20;98305.00;;;24.18;32.56
80124;BME280;69433;48.642;9.142;2024-01-25T11:02:46;98310.78;;;24.27;32.63
80124;BME280;69433;48.642;9.142;2024-01-25T11:05:13;98304.25;;;24.32;32.97
80124;BME280;69433;48.642;9.142;2024-01-25T11:07:50;98303.88;;;24.26;32.55
80124;BME280;69433;48.642;9.142;2024-01-25T11:10:24;98295.06;;;24.29;33.12
80124;BME280;69433;48.642;9.142;2024-01-25T11:13:00;98294.66;;;24.45;32.33
80124;BME280;69433;48.642;9.142;2024-01-25T11:15:37;98294.28;;;24.54;32.29
80124;BME280;69433;48.642;9.142;2024-01-25T11:18:08;98280.47;;;24.59;32.73
80124;BME280;69433;48.642;9.142;2024-01-25T11:20:46;98276.63;;;24.63;32.63
80124;BME280;69433;48.642;9.142;2024-01-25T11:23:15;98269.69;;;24.73;32.83
80124;BME280;69433;48.642;9.142;2024-01-25T11:25:44;98267.38;;;24.75;32.70
80124;BME280;69433;48.642;9.142;2024-01-25T11:28:10;98256.63;;;24.78;32.58
80124;BME280;69433;48.642;9.142;2024-01-25T11:30:50;98256.97;;;24.81;32.20
80124;BME280;69433;48.642;9.142;2024-01-25T11:33:17;98252.38;;;24.81;32.11
80124;BME280;69433;48.642;9.142;2024-01-25T11:35:54;98253.94;;;24.75;32.15
80124;BME280;69433;48.642;9.142;2024-01-25T11:38:29;98250.47;;;24.85;32.33
80124;BME280;69433;48.642;9.142;2024-01-25T11:40:57;98251.63;;;24.88;32.00
80124;BME280;69433;48.642;9.142;2024-01-25T11:43:24;98244.31;;;24.95;31.85
80124;BME280;69433;48.642;9.142;2024-01-25T11:45:54;98243.91;;;25.00;31.95
80124;BME280;69433;48.642;9.142;2024-01-25T11:48:19;98250.81;;;25.08;31.63
80124;BME280;69433;48.642;9.142;2024-01-25T11:50:45;98244.25;;;25.13;31.70
80124;BME280;69433;48.642;9.142;2024-01-25T11:53:17;98242.34;;;25.13;31.68
80124;BME280;69433;48.642;9.142;2024-01-25T11:55:49;98241.91;;;25.26;31.60
80124;BME280;69433;48.642;9.142;2024-01-25T11:58:14;98241.53;;;25.20;31.55
80124;BME280;69433;48.642;9.142;2024-01-25T12:00:40;98234.66;;;25.16;31.67
80124;BME280;69433;48.642;9.142;2024-01-25T12:03:08;98230.00;;;25.20;31.78
80124;BME280;69433;48.642;9.142;2024-01-25T12:05:34;98238.81;;;25.31;31.33
80124;BME280;69433;48.642;9.142;2024-01-25T12:07:59;98231.84;;;25.44;31.35
80124;BME280;69433;48.642;9.142;2024-01-25T12:10:26;98236.91;;;25.21;31.51
80124;BME280;69433;48.642;9.142;2024-01-25T12:12:51;98236.97;;;25.03;31.67
80124;BME280;69433;48.642;9.142;2024-01-25T12:15:23;98228.56;;;24.94;31.97
80124;BME280;69433;48.642;9.142;2024-01-25T12:17:51;98223.19;;;24.80;32.37
80124;BME280;69433;48.642;9.142;2024-01-25T12:20:17;98222.44;;;24.79;32.13
80124;BME280;69433;48.642;9.142;2024-01-25T12:22:43;98220.47;;;25.04;31.95
80124;BME280;69433;48.642;9.142;2024-01-25T12:25:23;98210.03;;;25.17;31.80
80124;BME280;69433;48.642;9.142;2024-01-25T12:27:48;98210.72;;;25.35;31.50
80124;BME280;69433;48.642;9.142;2024-01-25T12:30:15;98216.06;;;25.46;31.42
80124;BME280;69433;48.642;9.142;2024-01-25T12:32:48;98212.53;;;25.56;31.33
80124;BME280;69433;48.642;9.142;2024-01-25T12:35:14;98213.28;;;25.64;31.31
80124;BME280;69433;48.642;9.142;2024-01-25T12:37:40;98204.00;;;25.68;31.29
80124;BME280;69433;48.642;9.142;2024-01-25T12:40:05;98199.31;;;25.79;31.05
80124;BME280;69433;48.642;9.142;2024-01-25T12:42:35;98188.94;;;25.81;31.12
80124;BME280;69433;48.642;9.142;2024-01-25T12:48:08;98189.31;;;25.83;31.06
80124;BME280;69433;48.642;9.142;2024-01-25T12:50:36;98185.00;;;25.93;30.68
80124;BME280;69433;48.642;9.142;2024-01-25T12:53:15;98185.72;;;26.01;30.33
80124;BME280;69433;48.642;9.142;2024-01-25T12:55:48;98183.41;;;25.96;30.45
80124;BME280;69433;48.642;9.142;2024-01-25T12:58:19;98193.16;;;25.79;30.38
80124;BME280;69433;48.642;9.142;2024-01-25T13:00:44;98179.81;;;25.61;30.82
80124;BME280;69433;48.642;9.142;2024-01-25T13:03:21;98172.16;;;25.56;30.98
80124;BME280;69433;48.642;9.142;2024-01-25T13:05:47;98170.28;;;25.46;30.73
80124;BME280;69433;48.642;9.142;2024-01-25T13:08:12;98158.44;;;25.33;31.36
80124;BME280;69433;48.642;9.142;2024-01-25T13:10:52;98154.16;;;25.39;31.11